Ancona, Illinois
Current Conditions -  °F | °C
As of 11:35 AM on Friday 21 Nov 2014 (Local Time) from KPNT Reporting Station
Clear Clear  
Wind Chill: 21°   Ceiling: Unl
Heat Index: 31°   Visibility: 10mi
Dew Point:   Wind: 13mph
Humidity: 35%   Direction: 130°SE
Pressure: 30.44"   Gusts: NA
Location:  41.04°N, 88.87°W
Report Text: KPNT 211735Z AUTO 13011KT 10SM CLR M01/M14 A3044 RMK AO2 T10061144
Loading
Personal Weather Stations






























Interactive Weather Map New forecast layout! Learn more

10-Day Weather Forecast

Advertisements
Track Severe Weather on mobile